Time;durP1;ratioP1;P1;durP2;ratioP2;P2;SDS_P1;SDS_P2;PMS_P1;PMS_P2;Temp;Humidity;BMP_temperature;BMP_pressure;BME280_temperature;BME280_humidity;BME280_pressure;Samples;Min_cycle;Max_cycle;Signal;HPM_P1;HPM_P2
2023/01/07 00:01:36;;;;;;;10.60;5.07;;;21.00;68.50;;;;;;5005301;28;92106;-85
2023/01/07 00:04:03;;;;;;;12.48;5.35;;;21.10;68.70;;;;;;5005432;27;93217;-87
2023/01/07 00:06:34;;;;;;;9.40;4.70;;;21.00;68.60;;;;;;5005979;27;92952;-87
2023/01/07 00:09:01;;;;;;;8.73;5.03;;;21.00;68.70;;;;;;5006206;27;93159;-86
2023/01/07 00:11:30;;;;;;;10.20;5.55;;;21.00;68.60;;;;;;5007045;28;92002;-86
2023/01/07 00:13:58;;;;;;;9.43;5.65;;;21.00;68.70;;;;;;5005138;28;96987;-86
2023/01/07 00:16:27;;;;;;;9.52;4.97;;;21.00;68.80;;;;;;5004688;27;94079;-85
2023/01/07 00:18:55;;;;;;;9.02;5.57;;;21.00;68.80;;;;;;5005935;27;92475;-87
2023/01/07 00:21:22;;;;;;;9.68;5.10;;;21.00;68.90;;;;;;5005960;27;92669;-87
2023/01/07 00:23:52;;;;;;;9.93;4.72;;;21.00;68.70;;;;;;5004928;28;98931;-87
2023/01/07 00:26:20;;;;;;;11.27;5.47;;;21.00;68.80;;;;;;5005652;28;92862;-87
2023/01/07 00:28:48;;;;;;;11.30;5.40;;;20.90;68.90;;;;;;5005480;27;92397;-85
2023/01/07 00:31:19;;;;;;;7.72;4.50;;;20.90;68.80;;;;;;5005246;27;93691;-86
2023/01/07 00:34:05;;;;;;;10.25;5.00;;;20.90;68.70;;;;;;5005152;27;94640;-85
2023/01/07 00:36:50;;;;;;;8.77;4.97;;;20.90;68.80;;;;;;5003843;27;93260;-88
2023/01/07 00:39:19;;;;;;;9.18;4.93;;;20.90;68.80;;;;;;5005920;27;93390;-88
2023/01/07 00:44:30;;;;;;;8.25;4.43;;;20.80;68.60;;;;;;5005903;27;92828;-85
2023/01/07 00:46:58;;;;;;;10.23;4.97;;;20.80;68.50;;;;;;5005735;28;93296;-85
2023/01/07 00:49:24;;;;;;;8.95;4.90;;;20.80;68.80;;;;;;5005773;27;92264;-87
2023/01/07 00:51:51;;;;;;;8.30;4.60;;;20.80;68.80;;;;;;5005353;27;91671;-85
2023/01/07 00:54:17;;;;;;;9.68;4.80;;;20.80;68.70;;;;;;5004615;27;93237;-87
2023/01/07 00:56:42;;;;;;;9.30;4.95;;;20.80;68.70;;;;;;4998291;27;92431;-86
2023/01/07 00:59:08;;;;;;;7.82;4.28;;;20.80;68.60;;;;;;5034164;27;93549;-88
2023/01/07 01:01:34;;;;;;;7.50;4.30;;;20.80;68.60;;;;;;5006153;27;92721;-86
2023/01/07 01:03:59;;;;;;;6.75;3.85;;;20.80;68.70;;;;;;5004729;27;93284;-86
2023/01/07 01:06:25;;;;;;;8.43;4.30;;;20.70;68.50;;;;;;5004920;27;93116;-84
2023/01/07 01:08:50;;;;;;;7.35;3.72;;;20.70;68.60;;;;;;5004712;27;92621;-87
2023/01/07 01:11:16;;;;;;;8.98;4.85;;;20.70;68.60;;;;;;5005363;28;92505;-83
2023/01/07 01:13:43;;;;;;;6.45;4.40;;;20.80;68.80;;;;;;5005285;27;92426;-86
2023/01/07 01:16:15;;;;;;;7.93;4.50;;;20.70;68.70;;;;;;5005921;27;92481;-86
2023/01/07 01:18:41;;;;;;;8.05;4.47;;;20.70;68.70;;;;;;5005057;27;92191;-86
2023/01/07 01:21:09;;;;;;;7.68;4.32;;;20.70;68.50;;;;;;5004139;27;92701;-87
2023/01/07 01:23:35;;;;;;;6.95;4.10;;;20.70;68.50;;;;;;5004167;27;94519;-85
2023/01/07 01:26:11;;;;;;;6.50;4.10;;;20.70;68.70;;;;;;5008187;28;93467;-87
2023/01/07 01:28:37;;;;;;;8.32;4.72;;;20.70;68.60;;;;;;5009249;27;92558;-87
2023/01/07 01:31:04;;;;;;;6.72;3.83;;;20.70;68.70;;;;;;5008537;27;92358;-87
2023/01/07 01:33:29;;;;;;;7.32;4.45;;;20.70;68.70;;;;;;5009245;27;93501;-88
2023/01/07 01:35:55;;;;;;;7.88;4.55;;;20.70;68.60;;;;;;5007812;27;92603;-86
2023/01/07 01:38:21;;;;;;;6.97;4.07;;;20.70;68.50;;;;;;5009650;28;92830;-86
2023/01/07 01:40:46;;;;;;;7.85;4.13;;;20.60;68.30;;;;;;5008835;27;91290;-86
2023/01/07 01:43:33;;;;;;;9.73;4.95;;;20.60;68.50;;;;;;5008297;27;93559;-86
2023/01/07 01:46:03;;;;;;;6.47;3.63;;;20.70;68.50;;;;;;5008500;27;92774;-87
2023/01/07 01:48:32;;;;;;;6.03;3.80;;;20.70;68.50;;;;;;5008429;27;93407;-87
2023/01/07 01:50:58;;;;;;;8.32;4.70;;;20.60;68.40;;;;;;4998434;27;92744;-87
2023/01/07 01:53:28;;;;;;;7.40;4.35;;;20.60;68.40;;;;;;5008502;28;94047;-86
2023/01/07 01:56:01;;;;;;;7.55;3.67;;;20.60;68.40;;;;;;5034631;27;100293;-84
2023/01/07 01:58:36;;;;;;;7.38;4.22;;;20.60;68.40;;;;;;5035037;27;92650;-87
2023/01/07 02:01:02;;;;;;;8.10;4.65;;;20.60;68.40;;;;;;5034926;27;92580;-86
2023/01/07 02:03:30;;;;;;;6.57;3.90;;;20.60;68.40;;;;;;5033513;27;92591;-84
2023/01/07 02:05:56;;;;;;;6.97;4.28;;;20.60;68.40;;;;;;5028944;27;94184;-87
2023/01/07 02:08:22;;;;;;;6.47;4.10;;;20.60;68.40;;;;;;5048270;27;92603;-87
2023/01/07 02:11:03;;;;;;;7.18;4.15;;;20.50;68.30;;;;;;5035550;27;92089;-86
2023/01/07 02:13:48;;;;;;;6.75;3.83;;;20.50;68.40;;;;;;5033730;27;94284;-87
2023/01/07 02:16:37;;;;;;;6.32;3.65;;;20.60;68.60;;;;;;5033500;27;95334;-87
2023/01/07 02:19:39;;;;;;;7.47;4.28;;;20.50;68.40;;;;;;5034441;27;92661;-85
2023/01/07 02:22:16;;;;;;;7.45;3.95;;;20.50;68.30;;;;;;5032434;27;92600;-85
2023/01/07 02:24:48;;;;;;;7.70;4.43;;;20.50;68.30;;;;;;5032846;27;96181;-86
2023/01/07 02:27:51;;;;;;;6.88;3.92;;;20.50;68.20;;;;;;5017075;27;93877;-88
2023/01/07 02:30:22;;;;;;;8.68;4.28;;;20.50;68.30;;;;;;5007288;27;92452;-84
2023/01/07 02:33:06;;;;;;;6.20;3.80;;;20.50;68.30;;;;;;5008295;27;92140;-88
2023/01/07 02:36:09;;;;;;;7.82;4.18;;;20.50;68.40;;;;;;5006761;27;92883;-86
2023/01/07 02:38:47;;;;;;;6.85;3.95;;;20.40;68.20;;;;;;5006615;27;93320;-86
2023/01/07 02:41:28;;;;;;;5.60;3.75;;;20.40;68.30;;;;;;4998149;28;93927;-85
2023/01/07 02:44:03;;;;;;;6.45;3.53;;;20.50;68.40;;;;;;5007181;28;92599;-87
2023/01/07 02:46:50;;;;;;;4.25;3.08;;;20.50;68.20;;;;;;5006586;27;94626;-87
2023/01/07 02:49:17;;;;;;;8.70;4.22;;;20.50;68.20;;;;;;5007100;27;92847;-86
2023/01/07 02:51:43;;;;;;;5.60;3.25;;;20.40;68.20;;;;;;5008305;27;92748;-87
2023/01/07 02:54:16;;;;;;;8.23;4.40;;;20.40;68.20;;;;;;5007267;27;92773;-88
2023/01/07 02:57:13;;;;;;;6.70;3.80;;;20.50;68.40;;;;;;5006956;27;93697;-86
2023/01/07 03:00:20;;;;;;;7.53;4.10;;;20.40;68.20;;;;;;5007151;27;93842;-87
2023/01/07 03:03:13;;;;;;;5.97;3.67;;;20.40;68.20;;;;;;4994791;28;92693;-87
2023/01/07 03:06:13;;;;;;;7.15;3.78;;;20.40;68.30;;;;;;4995894;28;92467;-87
2023/01/07 03:08:52;;;;;;;6.70;4.13;;;20.40;68.30;;;;;;4992548;28;93574;-88
2023/01/07 03:11:20;;;;;;;7.15;3.50;;;20.40;68.20;;;;;;4979114;28;97413;-87
2023/01/07 03:14:01;;;;;;;5.68;3.10;;;20.40;68.10;;;;;;4996697;28;92047;-84
2023/01/07 03:16:34;;;;;;;6.18;3.67;;;20.40;68.10;;;;;;4996595;28;92030;-85
2023/01/07 03:19:12;;;;;;;5.85;3.58;;;20.40;68.10;;;;;;4985954;28;96659;-87
2023/01/07 03:21:38;;;;;;;5.53;3.53;;;20.40;67.90;;;;;;4994774;28;92915;-86
2023/01/07 03:24:05;;;;;;;6.40;3.50;;;20.40;67.90;;;;;;4994330;28;92155;-88
2023/01/07 03:26:38;;;;;;;5.93;3.90;;;20.40;68.00;;;;;;4994031;28;92237;-86
2023/01/07 03:29:07;;;;;;;4.68;3.35;;;20.40;68.60;;;;;;4997132;28;93749;-86
2023/01/07 03:31:35;;;;;;;6.78;3.85;;;20.40;67.70;;;;;;4993407;28;93365;-88
2023/01/07 03:34:07;;;;;;;4.93;3.40;;;20.30;68.00;;;;;;4996322;28;93685;-87
2023/01/07 03:36:39;;;;;;;5.20;3.33;;;20.40;68.00;;;;;;4995355;28;92433;-88
2023/01/07 03:39:06;;;;;;;6.25;3.58;;;20.30;67.80;;;;;;4992029;28;93603;-86
2023/01/07 03:44:16;;;;;;;9.23;3.75;;;20.30;67.90;;;;;;4987343;28;92460;-86
2023/01/07 03:46:42;;;;;;;5.47;3.38;;;20.30;67.90;;;;;;5004940;27;92133;-87
2023/01/07 03:49:08;;;;;;;5.85;3.25;;;20.30;67.90;;;;;;5004841;27;94512;-86
2023/01/07 03:51:34;;;;;;;6.28;3.70;;;20.30;67.80;;;;;;5006255;27;97426;-87
2023/01/07 03:53:59;;;;;;;5.78;3.22;;;20.30;68.00;;;;;;5003200;27;92359;-86
2023/01/07 03:56:25;;;;;;;6.93;3.90;;;20.30;68.00;;;;;;4986813;28;92412;-86
2023/01/07 03:58:51;;;;;;;5.13;3.35;;;20.30;67.90;;;;;;4985506;28;94318;-87
2023/01/07 04:01:16;;;;;;;6.22;3.80;;;20.30;67.90;;;;;;4986746;28;93625;-85
2023/01/07 04:03:42;;;;;;;5.07;3.13;;;20.30;67.80;;;;;;4986740;28;92724;-85
2023/01/07 04:06:08;;;;;;;4.63;3.10;;;20.30;67.50;;;;;;4986346;28;92312;-84
2023/01/07 04:08:35;;;;;;;4.25;2.80;;;20.30;67.80;;;;;;4985560;28;93586;-88
2023/01/07 04:11:01;;;;;;;5.80;2.97;;;20.20;67.80;;;;;;4986430;28;92526;-87
2023/01/07 04:13:27;;;;;;;5.03;3.35;;;20.30;67.90;;;;;;4986560;28;92790;-84
2023/01/07 04:15:52;;;;;;;5.45;2.95;;;20.30;67.90;;;;;;4987019;28;91669;-88
2023/01/07 04:18:18;;;;;;;4.90;2.97;;;20.20;67.90;;;;;;4985181;28;93213;-87
2023/01/07 04:20:45;;;;;;;5.82;3.20;;;20.20;67.80;;;;;;4984513;28;95663;-88
2023/01/07 04:23:11;;;;;;;4.38;2.72;;;20.20;68.00;;;;;;4985751;28;93638;-86
2023/01/07 04:25:39;;;;;;;6.05;3.33;;;20.20;68.00;;;;;;4985774;28;92974;-87
2023/01/07 04:28:04;;;;;;;4.60;2.88;;;20.20;68.00;;;;;;4985089;28;92563;-86
2023/01/07 04:30:32;;;;;;;5.50;3.30;;;20.20;68.00;;;;;;4985547;28;92464;-88
2023/01/07 04:32:57;;;;;;;5.30;3.50;;;20.20;68.00;;;;;;4985669;28;91991;-88
2023/01/07 04:35:23;;;;;;;6.10;3.25;;;20.20;67.90;;;;;;4986429;28;92219;-87
2023/01/07 04:37:49;;;;;;;5.63;3.00;;;20.20;67.80;;;;;;4985539;28;93323;-87
2023/01/07 04:40:16;;;;;;;5.32;3.22;;;20.20;68.00;;;;;;4985810;28;92345;-85
2023/01/07 04:42:41;;;;;;;4.53;2.88;;;20.20;68.00;;;;;;4985624;28;92353;-87
2023/01/07 04:45:07;;;;;;;5.68;3.15;;;20.20;67.80;;;;;;4985568;28;91996;-87
2023/01/07 04:47:33;;;;;;;5.15;3.20;;;20.20;68.00;;;;;;4984592;28;94519;-87
2023/01/07 04:49:58;;;;;;;5.18;3.22;;;20.20;67.80;;;;;;4985847;28;93767;-88
2023/01/07 04:52:24;;;;;;;5.13;3.20;;;20.10;68.70;;;;;;4985311;28;92610;-85
2023/01/07 04:54:49;;;;;;;3.95;2.97;;;20.10;67.90;;;;;;4985657;28;92518;-87
2023/01/07 04:57:15;;;;;;;4.35;3.03;;;20.10;67.90;;;;;;4985570;28;93389;-87
2023/01/07 04:59:41;;;;;;;6.45;3.13;;;20.10;67.70;;;;;;4984616;28;93332;-86
2023/01/07 05:02:06;;;;;;;5.00;3.05;;;20.10;67.90;;;;;;4977582;28;92706;-85
2023/01/07 05:04:32;;;;;;;4.00;2.58;;;20.10;67.80;;;;;;4985536;28;91243;-85
2023/01/07 05:06:57;;;;;;;4.88;3.00;;;20.10;67.80;;;;;;4984716;28;94200;-88
2023/01/07 05:09:23;;;;;;;4.75;3.03;;;20.10;67.70;;;;;;4984987;28;92689;-87
2023/01/07 05:11:49;;;;;;;4.55;2.58;;;20.10;67.60;;;;;;4984738;28;94585;-87
2023/01/07 05:14:14;;;;;;;4.25;2.83;;;20.10;67.80;;;;;;4986205;28;92087;-87
2023/01/07 05:16:40;;;;;;;5.50;3.58;;;20.10;67.70;;;;;;4984866;28;93705;-86
2023/01/07 05:19:05;;;;;;;5.15;2.85;;;20.10;67.60;;;;;;4977550;28;95196;-87
2023/01/07 05:21:31;;;;;;;4.45;2.90;;;20.10;67.60;;;;;;4985332;28;92628;-85
2023/01/07 05:23:58;;;;;;;4.57;2.90;;;20.10;67.60;;;;;;4984152;28;92151;-85
2023/01/07 05:26:23;;;;;;;5.50;3.20;;;20.10;67.60;;;;;;4983546;28;93209;-86
2023/01/07 05:28:49;;;;;;;4.15;3.00;;;20.10;67.50;;;;;;4983367;28;93258;-87
2023/01/07 05:31:14;;;;;;;4.47;2.60;;;20.10;67.40;;;;;;4982658;28;92035;-87
2023/01/07 05:33:40;;;;;;;5.40;2.92;;;20.10;67.60;;;;;;4982055;28;92726;-87
2023/01/07 05:36:06;;;;;;;5.10;2.85;;;20.00;67.60;;;;;;4981626;28;94539;-85
2023/01/07 05:38:31;;;;;;;4.57;2.80;;;20.10;67.50;;;;;;4982761;28;94554;-85
2023/01/07 05:40:57;;;;;;;4.57;2.95;;;20.10;67.50;;;;;;4985984;28;92591;-86
2023/01/07 05:43:23;;;;;;;5.13;2.78;;;20.00;67.30;;;;;;4984295;28;92553;-86
2023/01/07 05:45:48;;;;;;;4.68;2.60;;;20.00;67.60;;;;;;4983915;28;92017;-85
2023/01/07 05:48:14;;;;;;;5.20;3.00;;;20.00;67.40;;;;;;4983946;28;92779;-84
2023/01/07 05:50:40;;;;;;;4.38;2.90;;;20.00;67.40;;;;;;4985328;28;92725;-85
2023/01/07 05:53:06;;;;;;;4.70;2.45;;;20.00;67.40;;;;;;4985392;28;91365;-87
2023/01/07 05:55:32;;;;;;;4.00;2.40;;;20.00;67.30;;;;;;4983837;28;93058;-84
2023/01/07 05:57:57;;;;;;;4.05;2.60;;;20.00;67.50;;;;;;4983848;28;92583;-87
2023/01/07 06:00:23;;;;;;;4.38;2.40;;;20.00;67.20;;;;;;4983172;28;93101;-87
2023/01/07 06:02:48;;;;;;;5.78;3.05;;;20.00;67.50;;;;;;4983658;28;92909;-85
2023/01/07 06:05:14;;;;;;;3.45;2.58;;;20.00;67.40;;;;;;4984634;28;93221;-86
2023/01/07 06:07:40;;;;;;;3.85;2.20;;;19.90;67.40;;;;;;4984493;28;92821;-84
2023/01/07 06:10:05;;;;;;;4.90;2.90;;;20.00;67.40;;;;;;4984030;28;92665;-87
2023/01/07 06:12:32;;;;;;;3.97;2.78;;;20.00;67.10;;;;;;4985979;28;92217;-86
2023/01/07 06:14:58;;;;;;;4.22;2.40;;;20.00;67.60;;;;;;4985925;28;93241;-86
2023/01/07 06:17:24;;;;;;;3.42;2.35;;;20.00;67.10;;;;;;4988298;28;92809;-86
2023/01/07 06:19:49;;;;;;;3.05;2.13;;;20.00;67.10;;;;;;4988203;28;92379;-86
2023/01/07 06:22:15;;;;;;;3.85;2.28;;;20.00;67.00;;;;;;4987655;28;92140;-87
2023/01/07 06:24:41;;;;;;;3.33;2.17;;;20.00;67.10;;;;;;4986833;28;94820;-87
2023/01/07 06:27:08;;;;;;;3.05;2.30;;;19.90;66.80;;;;;;4987141;28;93555;-86
2023/01/07 06:29:33;;;;;;;4.03;2.45;;;19.90;67.20;;;;;;4988116;28;92388;-86
2023/01/07 06:31:59;;;;;;;3.85;2.35;;;20.00;67.10;;;;;;4988570;28;92573;-85
2023/01/07 06:34:24;;;;;;;4.07;2.55;;;20.00;67.00;;;;;;4978826;28;95292;-87
2023/01/07 06:36:50;;;;;;;3.40;2.40;;;20.00;66.60;;;;;;4986966;28;92844;-85
2023/01/07 06:39:16;;;;;;;3.67;2.40;;;20.10;66.70;;;;;;4987525;28;92988;-85
2023/01/07 06:41:41;;;;;;;3.92;2.50;;;20.20;66.90;;;;;;4987560;28;91833;-86
2023/01/07 06:44:07;;;;;;;5.35;3.00;;;20.40;65.70;;;;;;4987798;28;94036;-85
2023/01/07 06:46:32;;;;;;;5.32;2.72;;;20.40;65.70;;;;;;4986231;28;92626;-83
2023/01/07 06:48:58;;;;;;;3.67;2.22;;;20.50;65.30;;;;;;4986779;28;93540;-85
2023/01/07 06:51:24;;;;;;;5.13;2.58;;;20.50;65.20;;;;;;4987579;28;92431;-85
2023/01/07 06:53:54;;;;;;;3.45;2.50;;;20.60;65.40;;;;;;4986349;28;93784;-83
2023/01/07 06:56:20;;;;;;;3.08;2.10;;;20.70;65.20;;;;;;4986928;28;93461;-86
2023/01/07 06:58:45;;;;;;;3.58;2.20;;;20.70;64.30;;;;;;4987374;28;92072;-86
2023/01/07 07:01:11;;;;;;;3.67;2.38;;;20.80;64.40;;;;;;4977611;28;92053;-85
2023/01/07 07:03:36;;;;;;;5.03;2.53;;;20.80;64.50;;;;;;4984226;28;96294;-86
2023/01/07 07:06:03;;;;;;;2.90;2.00;;;20.80;64.70;;;;;;4986534;28;93012;-84
2023/01/07 07:08:29;;;;;;;4.72;2.42;;;20.80;64.60;;;;;;4986630;28;92121;-81
2023/01/07 07:10:55;;;;;;;2.88;2.00;;;20.80;64.40;;;;;;4987648;28;92462;-85
2023/01/07 07:13:20;;;;;;;3.63;2.05;;;20.80;64.50;;;;;;4985836;28;94463;-86
2023/01/07 07:15:46;;;;;;;5.50;2.30;;;20.90;64.50;;;;;;4987082;28;93594;-86
2023/01/07 07:18:12;;;;;;;5.53;2.50;;;20.90;64.40;;;;;;4986586;28;93163;-85
2023/01/07 07:20:37;;;;;;;4.18;2.30;;;20.90;64.50;;;;;;4987062;28;92347;-85
2023/01/07 07:23:03;;;;;;;2.78;2.05;;;20.80;64.30;;;;;;4986473;28;92659;-84
2023/01/07 07:25:28;;;;;;;3.72;2.28;;;20.90;64.50;;;;;;4976464;28;93280;-86
2023/01/07 07:27:54;;;;;;;3.63;2.20;;;20.90;64.50;;;;;;4987643;28;92596;-85
2023/01/07 07:30:20;;;;;;;3.97;2.47;;;20.80;64.50;;;;;;4985890;28;91656;-86
2023/01/07 07:32:45;;;;;;;3.05;1.95;;;20.90;64.80;;;;;;4986850;28;92516;-86
2023/01/07 07:35:12;;;;;;;2.50;1.73;;;20.90;64.60;;;;;;4985866;28;92452;-85
2023/01/07 07:37:38;;;;;;;3.10;1.92;;;20.90;64.60;;;;;;4984210;28;93327;-87
2023/01/07 07:40:05;;;;;;;5.60;2.05;;;20.90;64.40;;;;;;4985437;28;92040;-86
2023/01/07 07:42:37;;;;;;;4.32;2.47;;;21.00;64.00;;;;;;4984681;28;95343;-85
2023/01/07 07:45:05;;;;;;;4.97;2.38;;;21.00;63.80;;;;;;4997000;28;94068;-84
2023/01/07 07:47:30;;;;;;;4.43;2.42;;;21.00;63.00;;;;;;4985417;28;92418;-86
2023/01/07 07:49:56;;;;;;;5.50;2.20;;;21.00;62.70;;;;;;4986279;28;92890;-85
2023/01/07 07:52:21;;;;;;;4.07;2.05;;;21.00;63.00;;;;;;4984455;28;93271;-84
2023/01/07 07:54:47;;;;;;;5.60;2.30;;;20.90;63.50;;;;;;4985473;28;93197;-86
2023/01/07 07:57:13;;;;;;;10.88;2.63;;;20.90;62.80;;;;;;4984675;28;92489;-85
2023/01/07 07:59:38;;;;;;;6.18;2.53;;;20.90;62.20;;;;;;4986977;28;92011;-84
2023/01/07 08:02:04;;;;;;;3.33;2.10;;;20.80;62.40;;;;;;4987010;28;93705;-87
2023/01/07 08:04:32;;;;;;;4.90;2.40;;;20.80;63.60;;;;;;4987826;28;94483;-86
2023/01/07 08:06:59;;;;;;;10.37;2.40;;;20.70;63.90;;;;;;4986903;28;92317;-86
2023/01/07 08:09:25;;;;;;;6.72;2.63;;;20.70;62.60;;;;;;4985842;28;91960;-85
2023/01/07 08:11:50;;;;;;;3.92;2.10;;;20.70;63.50;;;;;;4985822;28;93301;-86
2023/01/07 08:14:16;;;;;;;7.15;2.03;;;20.70;63.70;;;;;;4986676;28;92556;-87
2023/01/07 08:16:42;;;;;;;5.07;2.55;;;20.70;64.30;;;;;;4986993;28;92570;-87
2023/01/07 08:19:07;;;;;;;6.72;2.47;;;20.60;64.40;;;;;;4986839;28;91253;-88
2023/01/07 08:21:33;;;;;;;6.05;2.83;;;20.70;64.60;;;;;;4985707;28;94314;-87
2023/01/07 08:23:58;;;;;;;4.00;2.25;;;20.70;64.60;;;;;;4985953;28;93266;-88
2023/01/07 08:26:32;;;;;;;7.60;2.00;;;20.60;64.80;;;;;;4986960;28;93468;-85
2023/01/07 08:28:57;;;;;;;4.30;1.50;;;20.60;64.90;;;;;;4985968;28;92365;-87
2023/01/07 08:31:23;;;;;;;5.75;2.08;;;20.60;65.10;;;;;;5001473;28;95950;-86
2023/01/07 08:33:49;;;;;;;5.40;2.42;;;20.60;64.90;;;;;;5005197;27;93202;-85
2023/01/07 08:36:14;;;;;;;6.65;2.53;;;20.60;65.10;;;;;;5006058;27;92791;-87
2023/01/07 08:38:40;;;;;;;5.07;2.30;;;20.60;65.10;;;;;;5004353;27;92768;-87
2023/01/07 08:41:05;;;;;;;4.65;2.55;;;20.60;65.10;;;;;;5005528;28;93393;-88
2023/01/07 08:43:32;;;;;;;6.75;2.03;;;20.60;65.20;;;;;;5006379;27;92425;-86
2023/01/07 08:45:58;;;;;;;9.65;2.55;;;20.60;65.20;;;;;;5005231;27;93687;-87
2023/01/07 08:48:23;;;;;;;11.40;3.10;;;20.70;65.30;;;;;;5004681;27;92027;-89
2023/01/07 08:50:51;;;;;;;11.63;3.50;;;20.80;65.40;;;;;;5004823;27;93641;-87
2023/01/07 08:53:18;;;;;;;14.80;5.18;;;20.90;65.70;;;;;;5005373;28;94390;-87
2023/01/07 08:55:43;;;;;;;18.38;5.95;;;20.90;65.70;;;;;;5005854;27;92331;-88
2023/01/07 08:58:09;;;;;;;26.48;7.35;;;21.00;66.70;;;;;;5007320;27;93430;-88
2023/01/07 09:00:34;;;;;;;24.40;6.57;;;21.00;66.00;;;;;;5005149;27;93678;-90
2023/01/07 09:03:02;;;;;;;19.90;6.85;;;21.00;65.70;;;;;;5003284;27;96261;-88
2023/01/07 09:05:28;;;;;;;20.90;6.35;;;21.00;66.00;;;;;;5005880;28;93694;-88
2023/01/07 09:07:54;;;;;;;20.95;6.60;;;21.10;66.40;;;;;;5004518;27;91393;-89
2023/01/07 09:10:20;;;;;;;33.90;7.60;;;21.10;66.70;;;;;;5007222;27;93274;-92
2023/01/07 09:12:46;;;;;;;28.02;7.07;;;21.10;66.70;;;;;;5004254;27;92423;-91
2023/01/07 09:15:11;;;;;;;26.27;7.00;;;21.20;66.60;;;;;;5007543;27;93540;-88
2023/01/07 09:17:37;;;;;;;28.17;6.93;;;21.30;67.10;;;;;;5000513;27;92226;-91
2023/01/07 09:20:04;;;;;;;25.52;7.63;;;21.40;66.50;;;;;;4995384;28;93982;-91
2023/01/07 09:22:32;;;;;;;18.13;5.47;;;21.40;66.40;;;;;;4977823;28;95364;-91
2023/01/07 09:24:57;;;;;;;19.50;6.40;;;21.50;65.10;;;;;;4942148;28;92513;-91
2023/01/07 09:27:25;;;;;;;24.05;7.97;;;21.50;65.50;;;;;;4983588;28;92506;-93
2023/01/07 09:29:52;;;;;;;37.53;10.77;;;21.40;65.10;;;;;;4972693;28;93703;-89
2023/01/07 09:32:18;;;;;;;34.58;9.30;;;21.30;64.50;;;;;;4994706;28;93324;-89
2023/01/07 09:34:43;;;;;;;32.20;8.13;;;21.10;65.40;;;;;;4988610;28;92168;-91
2023/01/07 09:37:09;;;;;;;33.13;9.82;;;21.00;66.10;;;;;;4978137;28;100582;-89
2023/01/07 09:39:34;;;;;;;25.38;8.23;;;21.00;66.40;;;;;;4979005;28;94383;-93
2023/01/07 09:42:32;;;;;;;23.63;7.75;;;20.90;66.70;;;;;;4985776;28;93394;-90
2023/01/07 09:45:27;;;;;;;24.80;8.30;;;20.80;67.10;;;;;;4949471;28;94095;-89
2023/01/07 09:47:55;;;;;;;27.35;9.10;;;20.90;67.30;;;;;;4949795;28;92638;-92
2023/01/07 09:50:32;;;;;;;28.10;8.23;;;20.90;65.50;;;;;;4955862;28;93932;-91
2023/01/07 09:53:11;;;;;;;28.30;7.72;;;20.80;65.60;;;;;;4951791;28;100454;-89
2023/01/07 09:55:38;;;;;;;;;;;20.70;65.80;;;;;;4970506;28;92548;-89
2023/01/07 09:58:04;;;;;;;28.33;8.35;;;20.70;66.40;;;;;;4974462;28;94337;-91
2023/01/07 10:00:33;;;;;;;25.98;7.47;;;20.70;66.80;;;;;;4955679;28;95626;-91
2023/01/07 10:03:24;;;;;;;24.90;8.15;;;20.70;67.40;;;;;;4968450;28;94257;-94
2023/01/07 10:06:19;;;;;;;29.08;7.38;;;20.70;67.60;;;;;;4953139;28;93510;-90
2023/01/07 10:09:14;;;;;;;30.60;8.27;;;20.70;67.70;;;;;;4950151;28;93214;-90
2023/01/07 10:11:59;;;;;;;21.65;8.00;;;20.70;68.00;;;;;;4936006;28;96629;-94
2023/01/07 10:14:42;;;;;;;23.17;7.75;;;20.70;68.40;;;;;;4953005;28;94525;-93
2023/01/07 10:17:33;;;;;;;24.35;7.95;;;20.70;68.20;;;;;;4972848;28;92588;-90
2023/01/07 10:20:26;;;;;;;27.77;8.48;;;20.70;68.60;;;;;;4962919;28;92385;-94
2023/01/07 10:23:37;;;;;;;24.55;7.05;;;20.70;68.20;;;;;;4985761;27;93250;-94
2023/01/07 10:26:04;;;;;;;22.23;7.07;;;20.90;66.60;;;;;;5002065;28;95911;-89
2023/01/07 10:28:51;;;;;;;29.90;8.75;;;20.90;65.60;;;;;;5004457;28;92395;-90
2023/01/07 10:31:24;;;;;;;29.83;9.02;;;20.90;65.80;;;;;;5003523;28;92574;-90
2023/01/07 10:33:51;;;;;;;37.88;9.10;;;21.00;71.80;;;;;;5002128;28;93597;-88
2023/01/07 10:36:23;;;;;;;26.20;8.68;;;21.00;75.10;;;;;;5000910;28;94511;-88
2023/01/07 10:38:52;;;;;;;32.20;8.43;;;21.00;74.90;;;;;;4994642;28;92795;-89
2023/01/07 10:41:30;;;;;;;27.52;8.80;;;21.00;78.30;;;;;;5004859;28;92434;-90
2023/01/07 10:44:18;;;;;;;32.63;9.45;;;20.80;75.50;;;;;;5009517;28;97757;-89
2023/01/07 10:47:15;;;;;;;34.38;9.52;;;20.80;79.20;;;;;;5000785;28;93327;-91
2023/01/07 10:50:17;;;;;;;27.80;8.23;;;20.80;77.20;;;;;;4931660;28;92419;-90
2023/01/07 10:52:46;;;;;;;19.88;6.50;;;20.80;74.60;;;;;;4931687;28;91571;-87
2023/01/07 10:55:15;;;;;;;21.85;6.72;;;20.80;71.10;;;;;;4931207;28;92434;-89
2023/01/07 10:57:41;;;;;;;17.67;5.43;;;20.70;70.90;;;;;;4930344;28;93112;-88
2023/01/07 11:00:13;;;;;;;20.17;5.55;;;20.60;68.80;;;;;;4929523;28;94454;-87
2023/01/07 11:02:49;;;;;;;15.45;5.18;;;20.60;67.70;;;;;;4948525;28;92548;-88
2023/01/07 11:05:19;;;;;;;16.85;5.60;;;20.70;65.10;;;;;;4952089;28;93990;-92
2023/01/07 11:08:25;;;;;;;25.17;6.68;;;20.60;65.10;;;;;;4958321;28;93376;-91
2023/01/07 11:10:51;;;;;;;14.60;6.85;;;20.60;68.40;;;;;;4892859;28;93801;-90
2023/01/07 11:13:36;;;;;;;18.27;7.95;;;20.70;70.50;;;;;;4892476;28;93249;-89
2023/01/07 11:16:23;;;;;;;24.15;7.50;;;20.60;71.40;;;;;;4892375;28;94701;-90
2023/01/07 11:19:07;;;;;;;22.13;7.22;;;20.60;72.00;;;;;;4892949;28;94152;-89
2023/01/07 11:21:39;;;;;;;16.15;6.72;;;20.60;71.30;;;;;;4893001;28;92397;-91
2023/01/07 11:24:34;;;;;;;23.63;6.32;;;20.60;70.70;;;;;;4894333;28;92376;-93
2023/01/07 11:27:14;;;;;;;23.38;6.75;;;20.70;71.40;;;;;;4920759;28;94478;-93
2023/01/07 11:29:53;;;;;;;15.65;6.00;;;20.60;70.90;;;;;;4934474;28;93639;-94
2023/01/07 11:32:25;;;;;;;13.40;5.43;;;20.60;70.30;;;;;;4934909;28;92334;-90
2023/01/07 11:35:05;;;;;;;12.85;5.05;;;20.70;69.50;;;;;;4931250;28;92327;-91
2023/01/07 11:37:40;;;;;;;11.70;4.60;;;20.70;66.90;;;;;;4929925;28;95626;-89
2023/01/07 11:40:11;;;;;;;11.40;4.78;;;20.70;65.80;;;;;;4931082;28;93871;-90
2023/01/07 11:42:57;;;;;;;18.02;4.85;;;20.70;65.00;;;;;;4931377;28;92617;-90
2023/01/07 11:45:24;;;;;;;14.57;4.90;;;20.70;65.00;;;;;;4931581;28;91482;-87
2023/01/07 11:47:53;;;;;;;13.57;5.30;;;20.60;64.90;;;;;;4959505;28;93351;-87
2023/01/07 11:50:28;;;;;;;12.77;4.90;;;20.60;66.70;;;;;;5013120;28;93177;-87
2023/01/07 11:53:19;;;;;;;12.45;4.75;;;20.50;65.70;;;;;;5010629;28;93490;-88
2023/01/07 11:55:55;;;;;;;14.82;4.72;;;20.50;65.40;;;;;;5012326;27;92221;-87
2023/01/07 11:58:22;;;;;;;12.77;4.80;;;20.50;65.40;;;;;;5030576;27;93734;-88
2023/01/07 12:01:05;;;;;;;12.63;4.95;;;20.60;66.40;;;;;;5011703;27;93426;-85
2023/01/07 12:03:31;;;;;;;11.20;4.32;;;20.60;65.80;;;;;;5003638;27;92140;-89
2023/01/07 12:06:04;;;;;;;13.35;5.32;;;20.60;65.60;;;;;;5012120;27;92754;-89
2023/01/07 12:08:30;;;;;;;9.77;4.40;;;20.70;65.80;;;;;;4996577;27;95366;-89
2023/01/07 12:11:00;;;;;;;14.70;5.15;;;20.70;66.00;;;;;;5040917;27;96056;-88
2023/01/07 12:13:26;;;;;;;;;;;20.60;66.10;;;;;;5012320;27;92859;-86
2023/01/07 12:15:53;;;;;;;12.68;4.80;;;20.60;66.10;;;;;;5012852;27;92123;-89
2023/01/07 12:18:41;;;;;;;13.00;4.03;;;20.50;66.60;;;;;;5011694;27;94525;-91
2023/01/07 12:21:34;;;;;;;13.88;4.13;;;20.50;66.80;;;;;;5010656;27;92345;-90
2023/01/07 12:24:30;;;;;;;9.13;3.70;;;20.50;66.60;;;;;;5011726;27;92221;-86
2023/01/07 12:27:07;;;;;;;12.23;3.70;;;20.60;64.80;;;;;;5009374;27;92408;-90
2023/01/07 12:29:52;;;;;;;11.90;4.40;;;20.70;66.10;;;;;;5010367;27;93684;-90
2023/01/07 12:32:37;;;;;;;16.58;4.63;;;20.80;65.40;;;;;;5011699;28;94581;-88
2023/01/07 12:35:07;;;;;;;9.70;3.72;;;20.80;65.50;;;;;;5011889;28;92459;-92
2023/01/07 12:38:15;;;;;;;13.43;4.97;;;20.70;66.20;;;;;;5013221;27;91273;-91
2023/01/07 12:41:01;;;;;;;13.02;4.00;;;20.60;66.10;;;;;;5013039;27;93515;-90
2023/01/07 12:43:35;;;;;;;15.05;4.50;;;20.60;66.40;;;;;;5004467;28;96564;-90
2023/01/07 12:46:04;;;;;;;13.18;3.80;;;20.60;66.20;;;;;;5012984;27;93669;-87
2023/01/07 12:49:25;;;;;;;11.70;4.47;;;20.60;66.10;;;;;;5009390;27;92699;-88
2023/01/07 12:52:10;;;;;;;11.45;4.60;;;20.60;66.40;;;;;;4995960;28;93683;-90
2023/01/07 12:54:46;;;;;;;10.85;4.18;;;20.60;66.20;;;;;;4994665;28;93812;-91
2023/01/07 12:57:20;;;;;;;12.15;4.20;;;20.60;66.20;;;;;;4997222;28;93175;-90
2023/01/07 13:00:00;;;;;;;12.27;4.47;;;20.60;66.20;;;;;;4988808;28;92084;-91
2023/01/07 13:03:02;;;;;;;13.18;4.25;;;20.50;66.60;;;;;;4995513;28;93236;-89
2023/01/07 13:05:59;;;;;;;13.85;4.25;;;20.50;66.70;;;;;;4996934;28;95809;-89
2023/01/07 13:08:42;;;;;;;10.05;4.20;;;20.60;66.40;;;;;;5005608;28;92811;-90
2023/01/07 13:14:32;;;;;;;10.25;4.03;;;20.60;66.30;;;;;;4999628;28;97616;-91